sensor_id;sensor_type;location;lat;lon;timestamp;temperature;humidity
1878;DHT22;939;51.426;6.972;2023-01-13T00:01:07;10.80;99.90
1878;DHT22;939;51.426;6.972;2023-01-13T00:03:34;10.80;99.90
1878;DHT22;939;51.426;6.972;2023-01-13T06:25:43;9.10;99.90
1878;DHT22;939;51.426;6.972;2023-01-13T06:28:11;9.00;99.90
1878;DHT22;939;51.426;6.972;2023-01-13T06:30:42;9.10;99.90
1878;DHT22;939;51.426;6.972;2023-01-13T06:33:13;9.10;99.90
1878;DHT22;939;51.426;6.972;2023-01-13T06:35:43;9.10;99.90
1878;DHT22;939;51.426;6.972;2023-01-13T06:38:12;9.10;99.90
1878;DHT22;939;51.426;6.972;2023-01-13T06:40:41;9.00;99.90
1878;DHT22;939;51.426;6.972;2023-01-13T06:43:09;9.00;99.90
1878;DHT22;939;51.426;6.972;2023-01-13T06:45:43;9.00;99.90
1878;DHT22;939;51.426;6.972;2023-01-13T06:48:11;8.90;99.90
1878;DHT22;939;51.426;6.972;2023-01-13T06:50:38;8.80;99.90
1878;DHT22;939;51.426;6.972;2023-01-13T06:53:06;8.90;99.90
1878;DHT22;939;51.426;6.972;2023-01-13T06:55:33;8.80;99.90
1878;DHT22;939;51.426;6.972;2023-01-13T06:58:02;8.80;99.90
1878;DHT22;939;51.426;6.972;2023-01-13T07:00:29;8.80;99.90
1878;DHT22;939;51.426;6.972;2023-01-13T07:03:05;8.80;99.90
1878;DHT22;939;51.426;6.972;2023-01-13T07:05:35;8.80;99.90
1878;DHT22;939;51.426;6.972;2023-01-13T07:08:02;8.80;99.90
1878;DHT22;939;51.426;6.972;2023-01-13T07:10:30;8.80;99.90
1878;DHT22;939;51.426;6.972;2023-01-13T07:12:59;8.80;99.90
1878;DHT22;939;51.426;6.972;2023-01-13T07:15:53;8.80;99.90
1878;DHT22;939;51.426;6.972;2023-01-13T07:18:21;8.80;99.90
1878;DHT22;939;51.426;6.972;2023-01-13T07:20:53;8.80;99.90
1878;DHT22;939;51.426;6.972;2023-01-13T07:23:20;8.80;99.90
1878;DHT22;939;51.426;6.972;2023-01-13T07:25:48;8.80;99.90
1878;DHT22;939;51.426;6.972;2023-01-13T07:28:15;8.70;99.90
1878;DHT22;939;51.426;6.972;2023-01-13T07:30:42;8.80;99.90
1878;DHT22;939;51.426;6.972;2023-01-13T07:33:10;8.80;99.90
1878;DHT22;939;51.426;6.972;2023-01-13T07:35:38;8.80;99.90
1878;DHT22;939;51.426;6.972;2023-01-13T07:38:08;8.80;99.90
1878;DHT22;939;51.426;6.972;2023-01-13T07:40:46;8.60;99.90
1878;DHT22;939;51.426;6.972;2023-01-13T07:43:21;8.70;99.90
1878;DHT22;939;51.426;6.972;2023-01-13T07:46:02;8.80;99.90
1878;DHT22;939;51.426;6.972;2023-01-13T07:48:32;8.70;99.90
1878;DHT22;939;51.426;6.972;2023-01-13T07:51:00;8.80;99.90
1878;DHT22;939;51.426;6.972;2023-01-13T07:53:27;8.90;99.90
1878;DHT22;939;51.426;6.972;2023-01-13T07:55:54;8.90;99.90
1878;DHT22;939;51.426;6.972;2023-01-13T07:58:23;8.90;99.90
1878;DHT22;939;51.426;6.972;2023-01-13T08:00:50;9.00;99.90
1878;DHT22;939;51.426;6.972;2023-01-13T08:03:17;8.90;99.90
1878;DHT22;939;51.426;6.972;2023-01-13T08:05:49;9.00;99.90
1878;DHT22;939;51.426;6.972;2023-01-13T08:08:17;9.00;99.90
1878;DHT22;939;51.426;6.972;2023-01-13T08:10:45;9.00;99.90
1878;DHT22;939;51.426;6.972;2023-01-13T08:13:14;9.10;99.90
1878;DHT22;939;51.426;6.972;2023-01-13T08:15:47;9.10;99.90
1878;DHT22;939;51.426;6.972;2023-01-13T08:18:14;9.10;99.90
1878;DHT22;939;51.426;6.972;2023-01-13T08:20:44;9.00;99.90
1878;DHT22;939;51.426;6.972;2023-01-13T08:23:23;9.20;99.90
1878;DHT22;939;51.426;6.972;2023-01-13T08:25:50;9.20;99.90
1878;DHT22;939;51.426;6.972;2023-01-13T08:28:17;9.20;99.90
1878;DHT22;939;51.426;6.972;2023-01-13T08:30:44;9.20;99.90
1878;DHT22;939;51.426;6.972;2023-01-13T08:33:11;9.20;99.90
1878;DHT22;939;51.426;6.972;2023-01-13T08:35:40;9.20;99.90
1878;DHT22;939;51.426;6.972;2023-01-13T08:38:08;9.20;99.90
1878;DHT22;939;51.426;6.972;2023-01-13T08:40:38;9.20;99.90
1878;DHT22;939;51.426;6.972;2023-01-13T08:43:15;9.10;99.90
1878;DHT22;939;51.426;6.972;2023-01-13T08:45:53;9.10;99.90
1878;DHT22;939;51.426;6.972;2023-01-13T08:48:24;9.10;99.90
1878;DHT22;939;51.426;6.972;2023-01-13T08:51:00;9.10;99.90
1878;DHT22;939;51.426;6.972;2023-01-13T08:53:27;9.10;99.90
1878;DHT22;939;51.426;6.972;2023-01-13T08:55:59;9.20;99.90
1878;DHT22;939;51.426;6.972;2023-01-13T08:58:27;9.20;99.90
1878;DHT22;939;51.426;6.972;2023-01-13T09:00:56;9.20;99.90
1878;DHT22;939;51.426;6.972;2023-01-13T09:03:23;9.10;99.90
1878;DHT22;939;51.426;6.972;2023-01-13T09:05:50;9.10;99.90
1878;DHT22;939;51.426;6.972;2023-01-13T09:08:17;9.10;99.90
1878;DHT22;939;51.426;6.972;2023-01-13T09:10:44;9.10;99.90
1878;DHT22;939;51.426;6.972;2023-01-13T09:13:13;9.10;99.90
1878;DHT22;939;51.426;6.972;2023-01-13T09:15:41;9.20;99.90
1878;DHT22;939;51.426;6.972;2023-01-13T09:18:09;9.10;99.90
1878;DHT22;939;51.426;6.972;2023-01-13T09:20:39;9.10;99.90
1878;DHT22;939;51.426;6.972;2023-01-13T09:23:07;9.10;99.90
1878;DHT22;939;51.426;6.972;2023-01-13T09:25:35;9.20;99.90
1878;DHT22;939;51.426;6.972;2023-01-13T09:28:02;9.20;99.90
1878;DHT22;939;51.426;6.972;2023-01-13T09:30:32;9.20;99.90
1878;DHT22;939;51.426;6.972;2023-01-13T09:32:58;9.20;99.90
1878;DHT22;939;51.426;6.972;2023-01-13T09:35:43;9.20;99.90
1878;DHT22;939;51.426;6.972;2023-01-13T09:38:10;9.30;99.90
1878;DHT22;939;51.426;6.972;2023-01-13T09:40:38;9.30;99.90
1878;DHT22;939;51.426;6.972;2023-01-13T09:43:15;9.30;99.90
1878;DHT22;939;51.426;6.972;2023-01-13T09:46:11;9.30;99.90
1878;DHT22;939;51.426;6.972;2023-01-13T09:49:01;9.40;99.90
1878;DHT22;939;51.426;6.972;2023-01-13T09:51:30;9.50;99.90
1878;DHT22;939;51.426;6.972;2023-01-13T09:54:04;9.40;99.90
1878;DHT22;939;51.426;6.972;2023-01-13T09:56:32;9.40;99.90
1878;DHT22;939;51.426;6.972;2023-01-13T09:58:59;9.40;99.90
1878;DHT22;939;51.426;6.972;2023-01-13T10:01:34;9.50;99.90
1878;DHT22;939;51.426;6.972;2023-01-13T10:04:09;9.50;99.90
1878;DHT22;939;51.426;6.972;2023-01-13T10:06:38;9.60;99.90
1878;DHT22;939;51.426;6.972;2023-01-13T10:09:12;9.60;99.90
1878;DHT22;939;51.426;6.972;2023-01-13T10:11:42;9.60;99.90
1878;DHT22;939;51.426;6.972;2023-01-13T10:14:33;9.70;99.90
1878;DHT22;939;51.426;6.972;2023-01-13T10:17:10;9.70;99.90
1878;DHT22;939;51.426;6.972;2023-01-13T10:19:42;9.80;99.90
1878;DHT22;939;51.426;6.972;2023-01-13T10:22:22;9.70;99.90
1878;DHT22;939;51.426;6.972;2023-01-13T10:25:09;9.70;99.90
1878;DHT22;939;51.426;6.972;2023-01-13T10:27:44;9.60;99.90
1878;DHT22;939;51.426;6.972;2023-01-13T10:30:19;9.60;99.90
1878;DHT22;939;51.426;6.972;2023-01-13T10:32:52;9.60;99.90
1878;DHT22;939;51.426;6.972;2023-01-13T10:35:51;9.70;99.90
1878;DHT22;939;51.426;6.972;2023-01-13T10:38:21;9.70;99.90
1878;DHT22;939;51.426;6.972;2023-01-13T10:40:49;9.80;99.90
1878;DHT22;939;51.426;6.972;2023-01-13T10:43:16;9.80;99.90
1878;DHT22;939;51.426;6.972;2023-01-13T10:45:51;9.90;99.90
1878;DHT22;939;51.426;6.972;2023-01-13T10:48:22;9.90;99.90
1878;DHT22;939;51.426;6.972;2023-01-13T10:50:49;9.90;99.90
1878;DHT22;939;51.426;6.972;2023-01-13T10:53:17;10.10;99.90
1878;DHT22;939;51.426;6.972;2023-01-13T10:55:58;10.10;99.90
1878;DHT22;939;51.426;6.972;2023-01-13T10:58:25;10.30;99.90
1878;DHT22;939;51.426;6.972;2023-01-13T11:01:01;10.30;99.90
1878;DHT22;939;51.426;6.972;2023-01-13T11:03:36;10.30;99.90
1878;DHT22;939;51.426;6.972;2023-01-13T11:06:06;10.30;99.90
1878;DHT22;939;51.426;6.972;2023-01-13T11:08:40;10.20;99.90
1878;DHT22;939;51.426;6.972;2023-01-13T11:11:26;10.10;99.90
1878;DHT22;939;51.426;6.972;2023-01-13T11:13:55;10.10;99.90
1878;DHT22;939;51.426;6.972;2023-01-13T11:16:45;10.10;99.90
1878;DHT22;939;51.426;6.972;2023-01-13T11:19:21;10.10;99.90
1878;DHT22;939;51.426;6.972;2023-01-13T11:21:54;10.10;99.90
1878;DHT22;939;51.426;6.972;2023-01-13T11:24:28;9.80;99.90
1878;DHT22;939;51.426;6.972;2023-01-13T11:27:02;9.60;99.90
1878;DHT22;939;51.426;6.972;2023-01-13T11:29:36;9.40;99.90
1878;DHT22;939;51.426;6.972;2023-01-13T11:32:09;9.50;99.90
1878;DHT22;939;51.426;6.972;2023-01-13T11:34:39;9.40;99.90
1878;DHT22;939;51.426;6.972;2023-01-13T11:37:12;9.50;99.90
1878;DHT22;939;51.426;6.972;2023-01-13T11:39:47;9.40;99.90
1878;DHT22;939;51.426;6.972;2023-01-13T11:42:19;9.40;99.90
1878;DHT22;939;51.426;6.972;2023-01-13T11:44:57;9.40;99.90
1878;DHT22;939;51.426;6.972;2023-01-13T11:47:26;9.40;99.90
1878;DHT22;939;51.426;6.972;2023-01-13T11:49:55;9.40;99.90
1878;DHT22;939;51.426;6.972;2023-01-13T11:52:26;9.40;99.90
1878;DHT22;939;51.426;6.972;2023-01-13T11:55:06;9.30;99.90
1878;DHT22;939;51.426;6.972;2023-01-13T11:58:03;9.40;99.90
1878;DHT22;939;51.426;6.972;2023-01-13T12:00:49;9.40;99.90
1878;DHT22;939;51.426;6.972;2023-01-13T12:03:26;9.30;99.90
1878;DHT22;939;51.426;6.972;2023-01-13T12:06:09;9.30;99.90
1878;DHT22;939;51.426;6.972;2023-01-13T18:34:07;8.90;99.90
1878;DHT22;939;51.426;6.972;2023-01-13T18:36:34;8.90;99.90
1878;DHT22;939;51.426;6.972;2023-01-13T18:39:00;8.90;99.90
1878;DHT22;939;51.426;6.972;2023-01-13T18:41:28;9.00;99.90
1878;DHT22;939;51.426;6.972;2023-01-13T18:44:13;9.00;99.90
1878;DHT22;939;51.426;6.972;2023-01-13T18:46:40;9.00;99.90
1878;DHT22;939;51.426;6.972;2023-01-13T18:49:08;9.00;99.90
1878;DHT22;939;51.426;6.972;2023-01-13T18:51:35;9.00;99.90
1878;DHT22;939;51.426;6.972;2023-01-13T18:54:02;9.00;99.90
1878;DHT22;939;51.426;6.972;2023-01-13T18:56:29;9.10;99.90
1878;DHT22;939;51.426;6.972;2023-01-13T18:58:56;9.10;99.90
1878;DHT22;939;51.426;6.972;2023-01-13T19:01:25;9.10;99.90
1878;DHT22;939;51.426;6.972;2023-01-13T19:03:55;9.10;99.90
1878;DHT22;939;51.426;6.972;2023-01-13T19:06:24;9.00;99.90
1878;DHT22;939;51.426;6.972;2023-01-13T19:08:52;9.10;99.90
1878;DHT22;939;51.426;6.972;2023-01-13T19:11:20;9.10;99.90
1878;DHT22;939;51.426;6.972;2023-01-13T19:13:48;9.10;99.90
1878;DHT22;939;51.426;6.972;2023-01-13T19:16:18;9.10;99.90
1878;DHT22;939;51.426;6.972;2023-01-13T19:18:58;9.10;99.90
1878;DHT22;939;51.426;6.972;2023-01-13T19:21:26;9.20;99.90
1878;DHT22;939;51.426;6.972;2023-01-13T19:23:54;9.10;99.90
1878;DHT22;939;51.426;6.972;2023-01-13T19:26:21;9.10;99.90
1878;DHT22;939;51.426;6.972;2023-01-13T19:28:49;9.10;99.90
1878;DHT22;939;51.426;6.972;2023-01-13T19:31:21;9.10;99.90
1878;DHT22;939;51.426;6.972;2023-01-13T19:33:53;9.20;99.90
1878;DHT22;939;51.426;6.972;2023-01-13T19:36:20;9.30;99.90
1878;DHT22;939;51.426;6.972;2023-01-13T19:39:03;9.30;99.90
1878;DHT22;939;51.426;6.972;2023-01-13T19:41:31;9.20;99.90
1878;DHT22;939;51.426;6.972;2023-01-13T19:44:12;9.20;99.90
1878;DHT22;939;51.426;6.972;2023-01-13T19:46:58;9.30;99.90
1878;DHT22;939;51.426;6.972;2023-01-13T19:49:25;9.20;99.90
1878;DHT22;939;51.426;6.972;2023-01-13T19:51:54;9.20;99.90
1878;DHT22;939;51.426;6.972;2023-01-13T19:54:26;9.20;99.90
1878;DHT22;939;51.426;6.972;2023-01-13T19:56:53;9.20;99.90
1878;DHT22;939;51.426;6.972;2023-01-13T19:59:20;9.30;99.90
1878;DHT22;939;51.426;6.972;2023-01-13T20:02:10;9.30;99.90
1878;DHT22;939;51.426;6.972;2023-01-13T20:04:38;9.30;99.90
1878;DHT22;939;51.426;6.972;2023-01-13T20:07:10;9.30;99.90
1878;DHT22;939;51.426;6.972;2023-01-13T20:09:41;9.30;99.90
1878;DHT22;939;51.426;6.972;2023-01-13T20:12:10;9.20;99.90
1878;DHT22;939;51.426;6.972;2023-01-13T20:14:45;9.20;99.90
1878;DHT22;939;51.426;6.972;2023-01-13T20:17:15;9.20;99.90
1878;DHT22;939;51.426;6.972;2023-01-13T20:19:43;9.10;99.90
1878;DHT22;939;51.426;6.972;2023-01-13T20:22:11;9.10;99.90
1878;DHT22;939;51.426;6.972;2023-01-13T20:24:38;9.10;99.90
1878;DHT22;939;51.426;6.972;2023-01-13T20:27:11;9.20;99.90
1878;DHT22;939;51.426;6.972;2023-01-13T20:29:39;9.10;99.90
1878;DHT22;939;51.426;6.972;2023-01-13T20:32:06;9.10;99.90
1878;DHT22;939;51.426;6.972;2023-01-13T20:34:33;9.00;99.90
1878;DHT22;939;51.426;6.972;2023-01-13T20:37:01;9.10;99.90
1878;DHT22;939;51.426;6.972;2023-01-13T20:39:30;9.00;99.90
1878;DHT22;939;51.426;6.972;2023-01-13T20:42:06;9.00;99.90
1878;DHT22;939;51.426;6.972;2023-01-13T20:44:52;9.10;99.90
1878;DHT22;939;51.426;6.972;2023-01-13T20:47:28;9.10;99.90
1878;DHT22;939;51.426;6.972;2023-01-13T20:49:57;9.10;99.90
1878;DHT22;939;51.426;6.972;2023-01-13T20:52:25;9.10;99.90
1878;DHT22;939;51.426;6.972;2023-01-13T20:55:00;9.00;99.90
1878;DHT22;939;51.426;6.972;2023-01-13T20:57:29;9.00;99.90
1878;DHT22;939;51.426;6.972;2023-01-13T21:00:03;8.90;99.90
1878;DHT22;939;51.426;6.972;2023-01-13T21:02:31;8.90;99.90
1878;DHT22;939;51.426;6.972;2023-01-13T21:04:58;8.90;99.90
1878;DHT22;939;51.426;6.972;2023-01-13T21:07:25;9.00;99.90
1878;DHT22;939;51.426;6.972;2023-01-13T21:09:54;8.90;99.90
1878;DHT22;939;51.426;6.972;2023-01-13T21:12:35;8.80;99.90
1878;DHT22;939;51.426;6.972;2023-01-13T21:15:21;8.80;99.90
1878;DHT22;939;51.426;6.972;2023-01-13T21:17:54;8.80;99.90
1878;DHT22;939;51.426;6.972;2023-01-13T21:20:39;8.70;99.90
1878;DHT22;939;51.426;6.972;2023-01-13T21:23:07;8.80;99.90
1878;DHT22;939;51.426;6.972;2023-01-13T21:25:36;8.60;99.90
1878;DHT22;939;51.426;6.972;2023-01-13T21:28:04;8.70;99.90
1878;DHT22;939;51.426;6.972;2023-01-13T21:30:38;8.80;99.90
1878;DHT22;939;51.426;6.972;2023-01-13T21:33:11;8.80;99.90
1878;DHT22;939;51.426;6.972;2023-01-13T21:35:53;8.80;99.90
1878;DHT22;939;51.426;6.972;2023-01-13T21:38:25;8.80;99.90
1878;DHT22;939;51.426;6.972;2023-01-13T21:40:55;8.80;99.90
1878;DHT22;939;51.426;6.972;2023-01-13T21:43:27;8.70;99.90
1878;DHT22;939;51.426;6.972;2023-01-13T21:46:14;8.70;99.90
1878;DHT22;939;51.426;6.972;2023-01-13T21:48:59;8.70;99.90
1878;DHT22;939;51.426;6.972;2023-01-13T21:51:26;8.70;99.90
1878;DHT22;939;51.426;6.972;2023-01-13T21:53:55;8.70;99.90
1878;DHT22;939;51.426;6.972;2023-01-13T21:56:23;8.70;99.90
1878;DHT22;939;51.426;6.972;2023-01-13T21:59:04;8.70;99.90
1878;DHT22;939;51.426;6.972;2023-01-13T22:01:35;8.70;99.90
1878;DHT22;939;51.426;6.972;2023-01-13T22:04:02;8.80;99.90
1878;DHT22;939;51.426;6.972;2023-01-13T22:06:39;8.80;99.90
1878;DHT22;939;51.426;6.972;2023-01-13T22:09:06;8.80;99.90
1878;DHT22;939;51.426;6.972;2023-01-13T22:11:33;8.70;99.90
1878;DHT22;939;51.426;6.972;2023-01-13T22:13:59;8.70;99.90
1878;DHT22;939;51.426;6.972;2023-01-13T22:16:36;8.80;99.90
1878;DHT22;939;51.426;6.972;2023-01-13T22:19:06;8.80;99.90
1878;DHT22;939;51.426;6.972;2023-01-13T22:21:34;8.70;99.90
1878;DHT22;939;51.426;6.972;2023-01-13T22:24:01;8.80;99.90
1878;DHT22;939;51.426;6.972;2023-01-13T22:26:28;8.80;99.90
1878;DHT22;939;51.426;6.972;2023-01-13T22:28:55;8.80;99.90
1878;DHT22;939;51.426;6.972;2023-01-13T22:31:23;8.80;99.90
1878;DHT22;939;51.426;6.972;2023-01-13T22:33:54;8.80;99.90
1878;DHT22;939;51.426;6.972;2023-01-13T22:36:22;8.80;99.90
1878;DHT22;939;51.426;6.972;2023-01-13T22:38:52;8.80;99.90
1878;DHT22;939;51.426;6.972;2023-01-13T22:41:19;8.80;99.90
1878;DHT22;939;51.426;6.972;2023-01-13T22:43:46;8.90;99.90
1878;DHT22;939;51.426;6.972;2023-01-13T22:46:13;8.90;99.90
1878;DHT22;939;51.426;6.972;2023-01-13T22:48:40;8.90;99.90
1878;DHT22;939;51.426;6.972;2023-01-13T22:51:10;8.90;99.90
1878;DHT22;939;51.426;6.972;2023-01-13T22:53:38;8.90;99.90
1878;DHT22;939;51.426;6.972;2023-01-13T22:56:06;8.90;99.90
1878;DHT22;939;51.426;6.972;2023-01-13T22:58:33;8.90;99.90
1878;DHT22;939;51.426;6.972;2023-01-13T23:01:07;8.90;99.90
1878;DHT22;939;51.426;6.972;2023-01-13T23:03:35;8.90;99.90
1878;DHT22;939;51.426;6.972;2023-01-13T23:06:02;8.90;99.90
1878;DHT22;939;51.426;6.972;2023-01-13T23:08:31;8.90;99.90
1878;DHT22;939;51.426;6.972;2023-01-13T23:11:01;8.80;99.90
1878;DHT22;939;51.426;6.972;2023-01-13T23:13:29;8.80;99.90
1878;DHT22;939;51.426;6.972;2023-01-13T23:16:00;8.80;99.90
1878;DHT22;939;51.426;6.972;2023-01-13T23:18:28;8.80;99.90
1878;DHT22;939;51.426;6.972;2023-01-13T23:20:54;8.80;99.90
1878;DHT22;939;51.426;6.972;2023-01-13T23:23:21;8.90;99.90
1878;DHT22;939;51.426;6.972;2023-01-13T23:25:50;8.90;99.90
1878;DHT22;939;51.426;6.972;2023-01-13T23:28:20;8.90;99.90
1878;DHT22;939;51.426;6.972;2023-01-13T23:30:47;8.90;99.90
1878;DHT22;939;51.426;6.972;2023-01-13T23:33:14;8.90;99.90
1878;DHT22;939;51.426;6.972;2023-01-13T23:35:41;8.90;99.90
1878;DHT22;939;51.426;6.972;2023-01-13T23:38:08;8.90;99.90
1878;DHT22;939;51.426;6.972;2023-01-13T23:40:35;8.80;99.90
1878;DHT22;939;51.426;6.972;2023-01-13T23:43:04;8.80;99.90
1878;DHT22;939;51.426;6.972;2023-01-13T23:45:31;8.90;99.90
1878;DHT22;939;51.426;6.972;2023-01-13T23:47:58;8.70;99.90
1878;DHT22;939;51.426;6.972;2023-01-13T23:50:25;8.80;99.90
1878;DHT22;939;51.426;6.972;2023-01-13T23:52:51;8.70;99.90
1878;DHT22;939;51.426;6.972;2023-01-13T23:55:18;8.70;99.90
1878;DHT22;939;51.426;6.972;2023-01-13T23:57:45;8.70;99.90
